Time;durP1;ratioP1;P1;durP2;ratioP2;P2;SDS_P1;SDS_P2;PMS_P1;PMS_P2;Temp;Humidity;BMP_temperature;BMP_pressure;BME280_temperature;BME280_humidity;BME280_pressure;Samples;Min_cycle;Max_cycle;Signal;HPM_P1;HPM_P2
2022/07/03 00:02:00;;;;;;;;;;;15.10;99.90;;;;;;5977551;23;20018;-78
2022/07/03 00:04:26;;;;;;;0.43;0.43;;;15.10;99.90;;;;;;4966199;28;20279;-78
2022/07/03 00:06:54;;;;;;;1.60;0.70;;;15.10;99.90;;;;;;4962107;28;20042;-77
2022/07/03 00:09:20;;;;;;;3.72;0.52;;;15.10;99.90;;;;;;4955681;28;20479;-77
2022/07/03 00:11:46;;;;;;;3.72;0.93;;;15.00;99.90;;;;;;4955353;28;20634;-78
2022/07/03 00:14:12;;;;;;;1.45;0.70;;;14.90;99.90;;;;;;4955350;28;20035;-77
2022/07/03 00:16:38;;;;;;;3.15;1.00;;;14.90;99.90;;;;;;4955368;28;20019;-77
2022/07/03 00:19:04;;;;;;;3.45;0.50;;;14.80;99.90;;;;;;4954927;28;20023;-77
2022/07/03 00:21:41;;;;;;;1.17;0.85;;;14.70;99.90;;;;;;4955070;28;20026;-77
2022/07/03 00:24:47;;;;;;;1.60;0.68;;;14.50;99.90;;;;;;4954949;28;20041;-78
2022/07/03 00:27:15;;;;;;;1.38;0.70;;;14.40;99.90;;;;;;4950621;28;20134;-77
2022/07/03 00:29:45;;;;;;;1.77;0.63;;;14.20;99.90;;;;;;4953671;28;20023;-78
2022/07/03 00:32:12;;;;;;;1.65;1.00;;;14.10;99.90;;;;;;4954853;28;20019;-77
2022/07/03 00:34:40;;;;;;;2.35;0.70;;;14.00;99.90;;;;;;4954287;28;20035;-78
2022/07/03 00:37:10;;;;;;;1.95;0.70;;;13.90;99.90;;;;;;4954805;28;20026;-77
2022/07/03 00:39:38;;;;;;;2.53;0.95;;;13.80;99.90;;;;;;4948062;28;20030;-77
2022/07/03 00:42:05;;;;;;;1.30;0.75;;;13.70;99.90;;;;;;4954921;28;20512;-78
2022/07/03 00:44:43;;;;;;;4.03;0.70;;;13.70;99.90;;;;;;4954685;28;20093;-78
2022/07/03 00:47:10;;;;;;;2.53;0.88;;;13.70;99.90;;;;;;4954542;28;20038;-77
2022/07/03 00:49:38;;;;;;;1.70;0.70;;;13.60;99.90;;;;;;4947442;28;20023;-77
2022/07/03 00:52:05;;;;;;;1.63;0.90;;;13.60;99.90;;;;;;4953845;28;20027;-77
2022/07/03 00:54:34;;;;;;;2.20;0.70;;;13.50;99.90;;;;;;4954477;28;20031;-77
2022/07/03 00:57:01;;;;;;;4.32;0.80;;;13.50;99.90;;;;;;4953437;28;20353;-77
2022/07/03 00:59:26;;;;;;;2.15;0.85;;;13.40;99.90;;;;;;4954558;28;20408;-77
2022/07/03 02:04:27;;;;;;;0.80;0.50;;;12.20;99.90;;;;;;5053668;23;20072;-77
2022/07/03 02:07:11;;;;;;;1.67;0.80;;;12.20;99.90;;;;;;4951974;28;20046;-77
2022/07/03 02:10:01;;;;;;;0.43;0.43;;;12.30;99.90;;;;;;4953488;28;20027;-77
2022/07/03 02:12:36;;;;;;;1.83;0.75;;;12.20;99.90;;;;;;4947748;28;20015;-77
2022/07/03 02:15:07;;;;;;;2.15;0.50;;;12.10;99.90;;;;;;4953013;28;20031;-76
2022/07/03 02:17:44;;;;;;;1.80;0.70;;;12.00;99.90;;;;;;4952558;28;20484;-77
2022/07/03 02:20:11;;;;;;;1.30;0.70;;;11.90;99.90;;;;;;4953219;28;20031;-78
2022/07/03 02:22:42;;;;;;;0.50;0.50;;;11.80;99.90;;;;;;4953019;28;20030;-77
2022/07/03 02:25:22;;;;;;;0.43;0.43;;;11.80;99.90;;;;;;4953121;28;20510;-77
2022/07/03 02:28:02;;;;;;;0.40;0.40;;;11.70;99.90;;;;;;4953208;28;20019;-77
2022/07/03 02:30:29;;;;;;;0.47;0.40;;;11.60;99.90;;;;;;4960066;28;20030;-77
2022/07/03 02:32:58;;;;;;;1.15;0.75;;;11.60;99.90;;;;;;4952783;28;20158;-77
2022/07/03 02:35:31;;;;;;;1.27;0.55;;;11.50;99.90;;;;;;4952728;28;20114;-77
2022/07/03 02:38:09;;;;;;;1.20;0.50;;;11.40;99.90;;;;;;4953152;28;20046;-77
2022/07/03 02:40:53;;;;;;;1.30;0.52;;;11.40;99.90;;;;;;4947169;28;20023;-78
2022/07/03 02:43:44;;;;;;;0.30;0.30;;;11.30;99.90;;;;;;4947113;28;20027;-77
2022/07/03 02:46:51;;;;;;;0.82;0.50;;;11.30;99.90;;;;;;4948078;28;20023;-77
2022/07/03 02:49:38;;;;;;;0.95;0.52;;;11.20;99.90;;;;;;4952949;28;20066;-77
2022/07/03 02:52:14;;;;;;;0.47;0.32;;;11.10;99.90;;;;;;4953076;28;20384;-77
2022/07/03 02:54:48;;;;;;;1.40;0.57;;;11.00;99.90;;;;;;4951734;28;20046;-77
2022/07/03 02:57:19;;;;;;;0.70;0.70;;;11.00;99.90;;;;;;4953126;28;20046;-77
2022/07/03 03:00:01;;;;;;;2.70;0.57;;;11.00;99.90;;;;;;4953063;28;20401;-77
2022/07/03 04:04:28;;;;;;;0.70;0.70;;;9.60;99.90;;;;;;4935211;29;20386;-76
2022/07/03 04:06:54;;;;;;;1.17;0.70;;;9.70;99.90;;;;;;4935150;29;20027;-76
2022/07/03 04:09:19;;;;;;;1.30;1.20;;;9.70;99.90;;;;;;4936334;29;20023;-75
2022/07/03 04:11:45;;;;;;;1.60;0.80;;;9.70;99.90;;;;;;4936174;29;20026;-75
2022/07/03 04:14:11;;;;;;;0.80;0.80;;;9.70;99.90;;;;;;4936198;29;20119;-75
2022/07/03 04:16:37;;;;;;;0.95;0.60;;;9.70;99.90;;;;;;4934938;29;20462;-76
2022/07/03 04:19:02;;;;;;;3.65;1.00;;;9.60;99.90;;;;;;4936031;29;20499;-76
2022/07/03 04:21:28;;;;;;;1.33;0.65;;;9.50;99.90;;;;;;4936249;29;20491;-75
2022/07/03 04:23:54;;;;;;;0.80;0.60;;;9.50;99.90;;;;;;4936100;29;20028;-75
2022/07/03 04:26:20;;;;;;;1.73;0.70;;;9.50;99.90;;;;;;4935883;29;20035;-74
2022/07/03 04:28:46;;;;;;;0.60;0.60;;;9.60;99.90;;;;;;4936116;29;20063;-74
2022/07/03 04:31:11;;;;;;;2.20;0.85;;;9.60;99.90;;;;;;4935535;29;20457;-74
2022/07/03 04:33:37;;;;;;;2.30;0.85;;;9.60;99.90;;;;;;4935293;29;20032;-75
2022/07/03 04:36:04;;;;;;;2.05;0.57;;;9.60;99.90;;;;;;4935657;29;20042;-75
2022/07/03 04:38:31;;;;;;;0.60;0.60;;;9.60;99.90;;;;;;4935458;29;20039;-75
2022/07/03 04:40:57;;;;;;;1.95;0.90;;;9.50;99.90;;;;;;4935138;29;20020;-75
2022/07/03 04:43:22;;;;;;;0.80;0.75;;;9.60;99.90;;;;;;4935505;29;20027;-75
2022/07/03 04:45:48;;;;;;;1.23;1.15;;;9.60;99.90;;;;;;4935800;29;20106;-74
2022/07/03 04:48:14;;;;;;;1.65;0.80;;;9.60;99.90;;;;;;4935434;29;20035;-75
2022/07/03 04:50:40;;;;;;;2.17;0.82;;;9.60;99.90;;;;;;4935494;29;20078;-75
2022/07/03 04:53:05;;;;;;;1.50;0.73;;;9.60;99.90;;;;;;4934928;29;20035;-75
2022/07/03 04:55:31;;;;;;;5.15;0.73;;;9.70;99.90;;;;;;4935292;29;20031;-75
2022/07/03 04:57:57;;;;;;;1.33;1.23;;;9.80;99.90;;;;;;4935359;29;20016;-75
2022/07/03 05:00:23;;;;;;;0.88;0.75;;;9.70;99.90;;;;;;4935141;29;20684;-75
2022/07/03 06:02:22;;;;;;;0.75;0.50;;;13.20;99.90;;;;;;5988803;23;20010;-75
2022/07/03 06:04:48;;;;;;;2.47;0.50;;;13.30;99.90;;;;;;4973664;28;20082;-75
2022/07/03 06:07:13;;;;;;;0.50;0.28;;;13.40;99.90;;;;;;4953373;28;20106;-76
2022/07/03 06:09:39;;;;;;;2.63;1.10;;;13.40;99.90;;;;;;4953611;28;20027;-76
2022/07/03 06:12:05;;;;;;;3.92;0.98;;;13.60;99.90;;;;;;4953264;28;20020;-75
2022/07/03 06:14:31;;;;;;;2.17;0.50;;;13.70;99.90;;;;;;4934039;29;20044;-76
2022/07/03 06:16:56;;;;;;;2.50;0.50;;;13.80;99.90;;;;;;4934175;29;20028;-75
2022/07/03 06:19:22;;;;;;;4.45;0.60;;;13.90;99.90;;;;;;4933811;29;20027;-75
2022/07/03 06:21:48;;;;;;;1.55;0.50;;;14.10;99.90;;;;;;4934388;29;20039;-76
2022/07/03 06:24:14;;;;;;;0.88;0.30;;;14.30;99.90;;;;;;4933721;29;20024;-76
2022/07/03 06:26:39;;;;;;;4.15;1.20;;;14.60;99.90;;;;;;4933797;29;20054;-76
2022/07/03 06:29:05;;;;;;;3.85;0.40;;;14.80;99.90;;;;;;4933787;29;20027;-76
2022/07/03 06:31:31;;;;;;;3.03;0.85;;;14.80;99.90;;;;;;4933908;29;20035;-77
2022/07/03 06:33:58;;;;;;;1.98;0.60;;;14.90;99.90;;;;;;4933222;29;20031;-75
2022/07/03 06:36:23;;;;;;;1.52;0.50;;;15.20;99.90;;;;;;4934200;29;20106;-76
2022/07/03 06:38:49;;;;;;;3.35;0.70;;;15.60;99.90;;;;;;4933934;29;20095;-77
2022/07/03 06:41:15;;;;;;;4.20;0.63;;;16.00;99.90;;;;;;4933883;29;20120;-76
2022/07/03 06:43:41;;;;;;;1.80;0.40;;;16.30;99.90;;;;;;4933532;29;20027;-76
2022/07/03 06:46:06;;;;;;;3.58;0.60;;;16.50;99.90;;;;;;4933485;29;20028;-76
2022/07/03 06:48:32;;;;;;;2.30;0.38;;;16.80;99.90;;;;;;4933805;29;20031;-76
2022/07/03 06:50:58;;;;;;;3.40;0.40;;;17.00;99.90;;;;;;4934045;29;20031;-76
2022/07/03 06:53:24;;;;;;;0.47;0.20;;;17.20;99.90;;;;;;4933847;29;20127;-76
2022/07/03 06:55:50;;;;;;;2.00;0.52;;;17.20;99.90;;;;;;4934022;29;20026;-76
2022/07/03 06:58:15;;;;;;;3.60;0.25;;;17.40;99.90;;;;;;4933630;29;20015;-76
2022/07/03 07:00:42;;;;;;;1.23;0.20;;;17.40;99.90;;;;;;4933638;29;20075;-76
2022/07/03 08:05:36;;;;;;;1.88;0.20;;;19.20;95.20;;;;;;4955362;28;20042;-77
2022/07/03 08:08:04;;;;;;;2.47;0.20;;;19.20;96.10;;;;;;4954230;28;20031;-76
2022/07/03 08:10:34;;;;;;;3.00;0.57;;;19.50;93.50;;;;;;4955429;28;20019;-75
2022/07/03 08:13:00;;;;;;;2.15;0.50;;;19.60;92.30;;;;;;4951128;28;20031;-76
2022/07/03 08:15:26;;;;;;;1.65;0.30;;;19.70;92.30;;;;;;4953608;28;20035;-74
2022/07/03 08:17:52;;;;;;;0.25;0.25;;;19.70;89.00;;;;;;4946100;28;20059;-75
2022/07/03 08:20:17;;;;;;;2.05;0.47;;;19.70;89.80;;;;;;4954797;28;20066;-75
2022/07/03 08:22:43;;;;;;;0.50;0.17;;;19.80;90.10;;;;;;4954303;28;20027;-76
2022/07/03 08:25:09;;;;;;;2.75;0.30;;;19.70;87.40;;;;;;4953235;28;20113;-75
2022/07/03 08:27:34;;;;;;;1.67;0.38;;;19.90;92.00;;;;;;4955312;28;20082;-75
2022/07/03 08:30:00;;;;;;;1.25;0.43;;;20.20;90.10;;;;;;4955048;28;20531;-76
2022/07/03 08:32:26;;;;;;;0.95;0.30;;;20.20;88.60;;;;;;4953598;28;20034;-74
2022/07/03 08:34:52;;;;;;;1.25;0.20;;;20.50;85.60;;;;;;4954203;28;20081;-75
2022/07/03 08:37:18;;;;;;;1.50;0.32;;;20.40;84.90;;;;;;4953961;28;20105;-76
2022/07/03 08:39:43;;;;;;;1.98;0.52;;;20.40;85.90;;;;;;4954318;28;20064;-75
2022/07/03 08:42:12;;;;;;;3.20;0.40;;;20.50;84.00;;;;;;4954556;28;20038;-75
2022/07/03 08:44:39;;;;;;;0.75;0.20;;;20.50;82.90;;;;;;4954346;28;20098;-77
2022/07/03 08:47:09;;;;;;;2.67;0.30;;;20.60;81.90;;;;;;4953116;28;20105;-77
2022/07/03 08:49:35;;;;;;;2.15;0.47;;;20.80;80.20;;;;;;4953734;28;20020;-77
2022/07/03 08:52:01;;;;;;;1.63;0.47;;;21.10;79.10;;;;;;4954408;28;20023;-76
2022/07/03 08:54:26;;;;;;;1.38;0.25;;;22.00;78.70;;;;;;4954281;28;20539;-75
2022/07/03 08:56:53;;;;;;;0.28;0.20;;;23.20;69.00;;;;;;4954241;28;20019;-77
2022/07/03 08:59:21;;;;;;;4.82;0.73;;;24.00;66.80;;;;;;4954065;28;20055;-77
2022/07/03 09:01:47;;;;;;;2.28;0.40;;;24.30;62.50;;;;;;4954031;28;20111;-76
2022/07/03 10:03:54;;;;;;;0.68;0.30;;;22.90;64.80;;;;;;5413419;23;20277;-77
2022/07/03 10:06:20;;;;;;;1.85;0.50;;;22.70;65.30;;;;;;5004626;28;20041;-77
2022/07/03 10:08:47;;;;;;;2.55;0.30;;;22.50;65.00;;;;;;5005646;28;20104;-76
2022/07/03 10:11:13;;;;;;;0.73;0.40;;;22.50;67.30;;;;;;5004889;28;20026;-76
2022/07/03 10:13:40;;;;;;;0.88;0.20;;;22.80;69.80;;;;;;4997847;28;20022;-77
2022/07/03 10:16:07;;;;;;;1.00;0.20;;;24.40;61.70;;;;;;4990891;28;20037;-77
2022/07/03 10:18:39;;;;;;;0.70;0.20;;;25.90;60.50;;;;;;4980017;28;20015;-78
2022/07/03 10:21:08;;;;;;;2.78;0.30;;;26.10;57.70;;;;;;4990752;28;20031;-78
2022/07/03 10:23:34;;;;;;;1.80;0.32;;;25.60;58.00;;;;;;4990789;28;20019;-76
2022/07/03 10:26:00;;;;;;;2.95;0.40;;;24.60;59.10;;;;;;4991426;28;20395;-76
2022/07/03 10:28:27;;;;;;;3.00;0.40;;;23.70;62.50;;;;;;4997757;28;20065;-77
2022/07/03 10:30:53;;;;;;;1.88;0.28;;;22.90;64.40;;;;;;4990382;28;20625;-76
2022/07/03 10:33:19;;;;;;;0.68;0.38;;;22.40;67.10;;;;;;4977247;28;20031;-75
2022/07/03 10:35:50;;;;;;;2.38;0.60;;;21.80;68.20;;;;;;4988446;28;20018;-76
2022/07/03 10:38:22;;;;;;;5.03;0.77;;;21.40;71.80;;;;;;4983653;28;20109;-76
2022/07/03 10:46:31;;;;;;;2.58;0.30;;;21.50;83.70;;;;;;4986444;28;20017;-77
2022/07/03 10:48:59;;;;;;;0.17;0.17;;;22.70;80.80;;;;;;4990030;28;20061;-74
2022/07/03 10:51:27;;;;;;;1.95;0.40;;;23.50;73.30;;;;;;4992433;28;20014;-77
2022/07/03 10:54:12;;;;;;;0.75;0.22;;;25.00;68.70;;;;;;4983598;28;20031;-76
2022/07/03 10:57:00;;;;;;;1.63;0.43;;;25.30;64.60;;;;;;4998481;28;20518;-78
2022/07/03 10:59:32;;;;;;;1.00;0.22;;;24.60;64.00;;;;;;4987041;28;20026;-76
2022/07/03 11:02:26;;;;;;;0.82;0.20;;;24.00;64.50;;;;;;4994337;28;20018;-76
2022/07/03 11:05:01;;;;;;;2.25;0.20;;;23.30;67.00;;;;;;4988193;28;20026;-77
2022/07/03 11:07:28;;;;;;;2.28;0.38;;;23.10;69.60;;;;;;4988825;28;20488;-76
2022/07/03 11:10:23;;;;;;;1.67;0.30;;;24.90;67.70;;;;;;4991269;28;20046;-78
2022/07/03 11:13:05;;;;;;;2.42;0.20;;;27.40;59.30;;;;;;4977760;28;20050;-77
2022/07/03 11:15:42;;;;;;;5.82;0.47;;;27.00;54.70;;;;;;4994687;28;20356;-76
2022/07/03 11:18:27;;;;;;;0.75;0.30;;;26.00;58.70;;;;;;4993857;28;20026;-76
2022/07/03 11:20:53;;;;;;;2.65;0.43;;;25.20;61.00;;;;;;4994385;28;20026;-76
2022/07/03 11:23:28;;;;;;;1.67;0.22;;;25.40;60.50;;;;;;4995106;28;20033;-76
2022/07/03 11:26:02;;;;;;;2.75;0.73;;;25.30;58.80;;;;;;4994680;28;20027;-75
2022/07/03 11:28:33;;;;;;;1.13;0.28;;;24.50;60.10;;;;;;4988000;28;20014;-75
2022/07/03 11:31:14;;;;;;;0.60;0.10;;;23.50;63.90;;;;;;4994856;28;20077;-75
2022/07/03 12:33:13;;;;;;;2.15;0.50;;;31.10;45.80;;;;;;5777592;23;20047;-75
2022/07/03 12:35:38;;;;;;;1.50;0.28;;;30.60;45.40;;;;;;4972801;28;20073;-74
2022/07/03 12:38:04;;;;;;;1.42;0.30;;;30.10;46.40;;;;;;4973978;28;20053;-74
2022/07/03 12:40:30;;;;;;;0.98;0.20;;;30.30;46.90;;;;;;4973620;28;20113;-75
2022/07/03 12:42:56;;;;;;;2.35;0.38;;;30.30;48.20;;;;;;4973882;28;20105;-75
2022/07/03 12:45:27;;;;;;;2.30;0.20;;;29.70;47.20;;;;;;4972746;28;20078;-76
2022/07/03 12:48:04;;;;;;;2.20;0.52;;;30.30;47.20;;;;;;4969110;28;20023;-74
2022/07/03 12:50:47;;;;;;;3.08;0.38;;;30.50;47.00;;;;;;4972464;28;20034;-76
2022/07/03 12:53:32;;;;;;;1.27;0.30;;;28.90;47.70;;;;;;4961028;28;20042;-74
2022/07/03 12:56:10;;;;;;;2.67;0.30;;;28.60;48.70;;;;;;4972151;28;20069;-76
2022/07/03 13:01:27;;;;;;;3.75;0.73;;;29.80;47.90;;;;;;4961865;28;20081;-76
2022/07/03 13:03:53;;;;;;;1.05;0.28;;;30.10;47.50;;;;;;4967390;28;20114;-75
2022/07/03 13:06:21;;;;;;;1.45;0.30;;;31.10;44.30;;;;;;4965105;28;20150;-75
2022/07/03 13:09:06;;;;;;;2.50;0.40;;;32.00;45.10;;;;;;4972316;28;20014;-76
2022/07/03 13:11:39;;;;;;;1.58;0.20;;;32.70;43.20;;;;;;4972217;28;20045;-76
2022/07/03 13:14:12;;;;;;;2.47;0.22;;;33.20;41.10;;;;;;4972302;28;20427;-76
2022/07/03 13:16:57;;;;;;;2.72;0.63;;;33.90;39.60;;;;;;4959028;28;20093;-77
2022/07/03 13:19:26;;;;;;;2.30;0.20;;;33.50;40.10;;;;;;4959533;28;20023;-76
2022/07/03 13:21:54;;;;;;;1.10;0.20;;;32.70;41.20;;;;;;4972035;28;20603;-78
2022/07/03 13:24:21;;;;;;;1.10;0.20;;;32.50;42.90;;;;;;4971846;28;20050;-76
2022/07/03 13:26:48;;;;;;;3.47;0.38;;;32.10;41.70;;;;;;4972124;28;20027;-77
2022/07/03 13:29:13;;;;;;;1.45;0.30;;;32.20;42.80;;;;;;4971889;28;20094;-75
2022/07/03 13:31:39;;;;;;;3.42;0.35;;;32.60;42.90;;;;;;4970577;28;20130;-76
2022/07/03 14:33:38;;;;;;;2.58;0.50;;;25.10;59.80;;;;;;5617188;23;20410;-75
2022/07/03 14:36:04;;;;;;;3.45;0.45;;;25.80;59.40;;;;;;5004700;28;20030;-75
2022/07/03 14:38:30;;;;;;;2.55;0.50;;;27.30;56.10;;;;;;5010018;28;20032;-76
2022/07/03 14:40:56;;;;;;;3.08;0.28;;;28.10;52.60;;;;;;5011432;28;20100;-76
2022/07/03 14:43:22;;;;;;;1.35;0.40;;;29.30;52.30;;;;;;5004834;28;20030;-75
2022/07/03 14:45:47;;;;;;;3.30;0.22;;;30.30;49.40;;;;;;4991338;28;20640;-76
2022/07/03 14:48:13;;;;;;;2.33;0.50;;;30.70;47.00;;;;;;4990017;28;20141;-76
2022/07/03 14:50:39;;;;;;;1.52;0.30;;;29.20;47.50;;;;;;4991570;28;20105;-75
2022/07/03 14:53:06;;;;;;;1.40;0.20;;;27.10;50.20;;;;;;4991473;28;20030;-74
2022/07/03 14:55:36;;;;;;;3.42;0.60;;;25.60;53.80;;;;;;4988215;28;20018;-77
2022/07/03 14:58:18;;;;;;;1.08;0.57;;;25.10;58.10;;;;;;4988618;28;20022;-77
2022/07/03 15:00:49;;;;;;;1.95;0.60;;;25.80;58.90;;;;;;4991619;28;20042;-74
2022/07/03 15:03:33;;;;;;;3.65;0.65;;;26.90;59.80;;;;;;4991311;28;20053;-77
2022/07/03 15:06:01;;;;;;;4.05;0.50;;;28.50;54.50;;;;;;4986162;28;20030;-76
2022/07/03 15:08:29;;;;;;;4.45;0.47;;;30.00;51.80;;;;;;4984579;28;20022;-76
2022/07/03 15:14:06;;;;;;;5.00;0.52;;;28.90;49.40;;;;;;4996585;28;20041;-76
2022/07/03 15:16:33;;;;;;;2.78;0.40;;;27.90;51.60;;;;;;4991460;28;20101;-76
2022/07/03 15:19:00;;;;;;;3.92;0.63;;;27.00;53.90;;;;;;4991395;28;20022;-77
2022/07/03 15:21:30;;;;;;;3.08;0.60;;;27.30;52.70;;;;;;4991160;28;20018;-76
2022/07/03 15:24:02;;;;;;;2.10;0.50;;;26.20;54.20;;;;;;4986765;28;20471;-76
2022/07/03 15:26:31;;;;;;;6.07;0.65;;;25.80;57.70;;;;;;4995315;28;20010;-76
2022/07/03 15:29:02;;;;;;;3.22;0.70;;;25.20;58.60;;;;;;4994569;28;20104;-76
2022/07/03 15:31:33;;;;;;;2.58;0.60;;;25.50;59.10;;;;;;4994610;28;20022;-76
2022/07/03 15:34:08;;;;;;;3.20;0.40;;;26.40;55.80;;;;;;4984910;28;20030;-76
2022/07/03 15:36:55;;;;;;;2.65;0.70;;;27.20;54.30;;;;;;4980484;28;20023;-76
2022/07/03 15:39:27;;;;;;;5.22;0.98;;;28.50;54.70;;;;;;4980908;28;20022;-76
2022/07/03 15:42:15;;;;;;;3.33;0.43;;;29.50;52.70;;;;;;4987471;28;20014;-76
2022/07/03 15:45:05;;;;;;;4.70;0.47;;;30.20;50.20;;;;;;4994359;28;20022;-75
2022/07/03 15:47:53;;;;;;;6.63;1.00;;;28.00;50.80;;;;;;4994056;28;20022;-75
2022/07/03 15:50:30;;;;;;;3.67;0.70;;;25.90;56.10;;;;;;4979531;28;20019;-75
2022/07/03 15:52:56;;;;;;;2.47;0.40;;;24.30;61.40;;;;;;4985470;28;20038;-76
2022/07/03 15:55:23;;;;;;;4.13;0.95;;;23.50;64.80;;;;;;4980246;28;21058;-76
2022/07/03 15:57:57;;;;;;;1.20;0.30;;;23.40;65.70;;;;;;4979983;28;20050;-77
2022/07/03 16:00:25;;;;;;;6.80;0.60;;;23.40;67.60;;;;;;4981407;28;20041;-75
2022/07/03 17:05:00;;;;;;;2.35;0.68;;;22.40;93.30;;;;;;5020674;23;20081;-77
2022/07/03 17:07:27;;;;;;;3.55;0.80;;;22.60;96.00;;;;;;4954239;28;20106;-77
2022/07/03 17:09:53;;;;;;;1.95;0.60;;;22.50;90.20;;;;;;4954349;28;20016;-77
2022/07/03 17:12:19;;;;;;;4.28;1.10;;;22.30;93.70;;;;;;4948679;28;20031;-78
2022/07/03 17:14:45;;;;;;;4.70;0.80;;;22.20;95.20;;;;;;4931944;28;20039;-77
2022/07/03 17:17:16;;;;;;;5.15;0.90;;;22.00;94.80;;;;;;4933206;29;20668;-77
2022/07/03 17:19:52;;;;;;;;;;;21.90;98.30;;;;;;4935288;29;20031;-77
2022/07/03 17:22:21;;;;;;;10.00;2.25;;;21.90;99.90;;;;;;4936205;29;19918;-81
2022/07/03 17:24:50;;;;;;;1.23;0.80;;;21.90;99.90;;;;;;4936555;29;20023;-80
2022/07/03 17:27:23;;;;;;;3.28;1.20;;;21.90;99.90;;;;;;4939152;28;20038;-82
2022/07/03 17:29:57;;;;;;;3.40;0.90;;;21.80;99.90;;;;;;4940479;29;20042;-79
2022/07/03 17:32:23;;;;;;;3.95;1.23;;;21.60;99.90;;;;;;4938279;29;20020;-85
2022/07/03 17:34:52;;;;;;;5.00;1.27;;;21.60;99.90;;;;;;4930330;29;20031;-79
2022/07/03 17:37:19;;;;;;;5.57;2.78;;;21.50;99.90;;;;;;4942427;29;20038;-79
2022/07/03 17:39:46;;;;;;;6.18;2.40;;;21.30;99.90;;;;;;4938057;28;20376;-79
2022/07/03 17:42:14;;;;;;;5.35;1.05;;;21.20;99.90;;;;;;4926036;29;20122;-80
2022/07/03 17:44:41;;;;;;;4.43;1.20;;;21.10;99.90;;;;;;4933109;29;20020;-80
2022/07/03 17:47:12;;;;;;;3.53;1.92;;;20.90;99.90;;;;;;4933620;29;20043;-77
2022/07/03 17:49:44;;;;;;;4.45;1.83;;;20.80;99.90;;;;;;4933075;29;20042;-78
2022/07/03 17:52:13;;;;;;;4.50;1.27;;;20.80;99.90;;;;;;4934436;29;20110;-80
2022/07/03 17:54:39;;;;;;;2.42;1.15;;;20.70;99.90;;;;;;4934010;29;20389;-81
2022/07/03 18:00:09;;;;;;;6.97;1.88;;;20.50;99.90;;;;;;4912904;29;20076;-82
2022/07/03 18:02:39;;;;;;;2.53;1.30;;;20.40;99.90;;;;;;4929450;29;20035;-78
2022/07/03 19:04:46;;;;;;;3.28;1.00;;;18.50;99.90;;;;;;5244074;23;20080;-80
2022/07/03 19:07:16;;;;;;;3.13;1.25;;;18.40;99.90;;;;;;4966023;28;20860;-76
2022/07/03 19:10:11;;;;;;;2.13;1.17;;;18.30;99.90;;;;;;4970183;28;20022;-78
2022/07/03 19:12:38;;;;;;;5.95;1.42;;;18.30;99.90;;;;;;4972381;28;20113;-77
2022/07/03 19:15:05;;;;;;;2.33;1.45;;;18.20;99.90;;;;;;4966657;28;20039;-77
2022/07/03 19:17:33;;;;;;;2.95;1.42;;;18.20;99.90;;;;;;4964160;28;20023;-79
2022/07/03 19:19:59;;;;;;;2.30;1.30;;;18.10;99.90;;;;;;4969132;28;20035;-76
2022/07/03 19:22:25;;;;;;;3.60;1.05;;;18.00;99.90;;;;;;4972372;28;20025;-78
2022/07/03 19:24:51;;;;;;;3.95;1.48;;;17.90;99.90;;;;;;4967465;28;20015;-80
2022/07/03 19:27:17;;;;;;;8.52;1.70;;;17.90;99.90;;;;;;4968092;28;20027;-78
2022/07/03 19:29:43;;;;;;;6.03;1.73;;;17.80;99.90;;;;;;4967874;28;20022;-77
2022/07/03 19:32:11;;;;;;;6.65;1.73;;;17.70;99.90;;;;;;4973657;28;20031;-79
2022/07/03 19:34:38;;;;;;;5.00;1.38;;;17.60;99.90;;;;;;4957755;28;20039;-79
2022/07/03 19:37:04;;;;;;;6.50;1.80;;;17.60;99.90;;;;;;4968933;28;20055;-79
2022/07/03 19:39:30;;;;;;;9.52;1.92;;;17.50;99.90;;;;;;4973292;28;20097;-77
2022/07/03 19:41:56;;;;;;;3.58;1.20;;;17.40;99.90;;;;;;4966922;28;20019;-79
2022/07/03 19:44:22;;;;;;;6.45;1.52;;;17.30;99.90;;;;;;4968374;28;20081;-79
2022/07/03 19:46:48;;;;;;;4.63;1.70;;;17.20;99.90;;;;;;4974029;28;20468;-79
2022/07/03 19:49:13;;;;;;;5.57;1.40;;;17.20;99.90;;;;;;4971773;28;20035;-79
2022/07/03 19:51:39;;;;;;;11.27;3.90;;;17.10;99.90;;;;;;4971627;28;20065;-76
2022/07/03 19:54:06;;;;;;;10.30;4.95;;;16.90;99.90;;;;;;4964691;28;20039;-90
2022/07/03 19:56:32;;;;;;;10.02;3.75;;;16.90;99.90;;;;;;4968757;28;20102;-87
2022/07/03 19:58:58;;;;;;;48.72;22.77;;;16.80;99.90;;;;;;4969983;28;20081;-87
2022/07/03 20:01:24;;;;;;;42.40;19.00;;;16.70;99.90;;;;;;4968198;28;20033;-86
2022/07/03 20:03:50;;;;;;;42.50;17.75;;;16.70;99.90;;;;;;4956109;28;20030;-86
2022/07/03 20:06:16;;;;;;;12.18;4.70;;;16.60;99.90;;;;;;4957890;28;20432;-85
2022/07/03 20:08:42;;;;;;;44.88;21.73;;;16.50;99.90;;;;;;4969689;28;20019;-86
2022/07/03 20:11:08;;;;;;;22.42;10.20;;;16.40;99.90;;;;;;4969032;28;20041;-85
2022/07/03 20:13:33;;;;;;;10.73;4.95;;;16.30;99.90;;;;;;4969058;28;20035;-82
2022/07/03 20:16:00;;;;;;;6.47;2.60;;;16.30;99.90;;;;;;4970146;28;20030;-89
2022/07/03 20:18:26;;;;;;;4.22;1.70;;;16.20;99.90;;;;;;4969700;28;20042;-87
2022/07/03 20:20:52;;;;;;;11.65;3.55;;;16.20;99.90;;;;;;4969887;28;20034;-89
2022/07/03 20:23:18;;;;;;;8.68;2.17;;;16.10;99.90;;;;;;4963227;28;20035;-86
2022/07/03 20:25:44;;;;;;;7.88;2.17;;;16.10;99.90;;;;;;4949101;28;20016;-87
2022/07/03 20:28:11;;;;;;;6.13;2.03;;;16.00;99.90;;;;;;4960758;28;20030;-87
2022/07/03 20:30:37;;;;;;;3.33;1.58;;;16.00;99.90;;;;;;4956503;28;20023;-87
2022/07/03 22:04:24;;;;;;;5.53;1.90;;;14.50;99.90;;;;;;5422722;23;19969;-88
2022/07/03 22:06:50;;;;;;;2.75;1.50;;;14.40;99.90;;;;;;4981427;28;20360;-90
2022/07/03 22:14:45;;;;;;;3.15;1.55;;;14.40;99.90;;;;;;4938865;28;20096;-87
2022/07/03 22:17:10;;;;;;;3.33;1.65;;;14.40;99.90;;;;;;4934458;28;20026;-86
2022/07/03 22:19:36;;;;;;;2.28;1.33;;;14.30;99.90;;;;;;4933047;28;20426;-86
2022/07/03 22:22:02;;;;;;;4.93;1.27;;;14.30;99.90;;;;;;4928280;28;20031;-84
2022/07/03 22:24:28;;;;;;;3.65;1.70;;;14.20;99.90;;;;;;4932955;28;20051;-84
2022/07/03 22:26:55;;;;;;;2.92;1.50;;;14.10;99.90;;;;;;4945967;28;20063;-80
2022/07/03 22:29:21;;;;;;;6.35;2.00;;;14.10;99.90;;;;;;4950256;28;20047;-81
2022/07/03 22:31:53;;;;;;;2.60;1.60;;;14.00;99.90;;;;;;4951783;28;20448;-81
2022/07/03 22:34:18;;;;;;;7.80;1.80;;;14.00;99.90;;;;;;4953834;28;20035;-81
2022/07/03 22:36:44;;;;;;;2.70;1.42;;;14.00;99.90;;;;;;4956580;28;20385;-80
2022/07/03 22:39:10;;;;;;;6.38;2.17;;;14.00;99.90;;;;;;4957482;28;20034;-81
2022/07/03 22:41:36;;;;;;;8.77;2.65;;;14.00;99.90;;;;;;4956694;28;20030;-80
2022/07/03 22:44:02;;;;;;;8.65;3.83;;;13.90;99.90;;;;;;4956634;28;20039;-80
2022/07/03 22:46:30;;;;;;;8.40;2.85;;;13.90;99.90;;;;;;4956285;28;20094;-80
2022/07/03 22:48:56;;;;;;;14.85;3.45;;;13.70;99.90;;;;;;4956614;28;20039;-80
2022/07/03 22:51:22;;;;;;;7.25;2.42;;;13.60;99.90;;;;;;4956913;28;20045;-80
2022/07/03 22:53:47;;;;;;;8.45;2.60;;;13.50;99.90;;;;;;4956769;28;20046;-81
2022/07/03 22:56:13;;;;;;;7.18;2.95;;;13.50;99.90;;;;;;4956642;28;21245;-80
2022/07/03 22:58:39;;;;;;;7.53;3.60;;;13.40;99.90;;;;;;4956618;28;20023;-80
2022/07/03 23:01:05;;;;;;;11.20;3.50;;;13.40;99.90;;;;;;4956620;28;20042;-80
